Patrick Air Force Base
KCOF : now visible

Airfield :











YOU CAN JOIN US ON...

 
LOGIN :

Register | Disclaimer

   EN    FR    IT 

 









Legend :    VFR   Marginal VFR   IFR   Intensive IFR   Very Intensive IFR
Visi :
Ceiling :
>= 8 km
>= 3000ft
5 to 8 km
1000 to 3000 ft
1500m to 5 km
500 to 1000 ft
800 to 1500m
200 to 500 ft
< 800m
< 200 ft
Symbols :   Thunderstorms  Fog  Heavy snow  Heavy precipitations  Wind > 20 kt







- Airport Elevation : 8 ft


KCOF - Patrick Air Force Base

CURRENT METAR :
  • 181556Z AUTO 13016KT 10SM CLR 27/21 A3003 RMK AO2 SLP174 T02740209 $

EXPIRED METARs :
  • 181456Z AUTO 12013KT 10SM CLR 27/20 A3003 RMK AO2 SLP174 T02710199 50010 $
  • 181356Z AUTO 14012KT 10SM CLR 27/18 A3001 RMK AO2 SLP167 T02660182 $

TAF TAF KCOF
Valid from the 18 at 10:00 until the 19 at 16:00 UTC


181000Z 1810/1916 15010KT 9999 SCT035 QNH2998INS
BECMG 1816/1817 15012G18KT 9999 SCT030 QNH2992INS
BECMG 1823/1824 16015G20KT 9999 VCSH SCT025 BKN070 QNH2988INS
BECMG 1905/1906 18012G20KT 9999 NSW BKN020 BKN070 QNH2983INS
BECMG 1915/1916 18020G30KT 8000 -SHRA VCTS BKN020CB BKN050 QNH2982INS TX28/1818Z TN23/1810Z
KZMA FIR / North America



MET'MAP, your aeronautical weather chart ! - Copyright ORBIFLY December 2007 - Disclaimer

ORBIFLY MET'MAP TEAM :

Programming & Development : Alexandra Zaïnal
Concept & Development : Baudouin d'Aumeries
Co-Development & Prog : Marc-Olivier Méhu
Technical & hardware support : Manuel Goepfert

Contact : metmap@orbifly.com




SOURCES & CREDITS :

   NOAA       Earth
Advisory